createdAt,value
2023-01-18T00:01:51.535Z,97568.81
2023-01-18T00:06:53.606Z,97582.25
2023-01-18T00:11:55.683Z,97588.78
2023-01-18T00:16:57.778Z,97567.03
2023-01-18T00:21:59.868Z,97537.16
2023-01-18T00:27:01.999Z,97521.97
2023-01-18T00:32:04.437Z,97509.34
2023-01-18T00:37:06.510Z,97529.50
2023-01-18T00:42:27.164Z,97565.41
2023-01-18T00:47:29.588Z,97608.47
2023-01-18T00:52:31.753Z,97669.16
2023-01-18T00:57:33.844Z,97662.28
2023-01-18T01:02:44.687Z,97679.56
2023-01-18T01:07:49.106Z,97660.37
2023-01-18T01:13:09.710Z,97655.53
2023-01-18T01:18:31.703Z,97654.91
2023-01-18T01:23:52.339Z,97638.50
2023-01-18T01:28:54.441Z,97635.66
2023-01-18T01:33:56.591Z,97639.06
2023-01-18T01:38:58.726Z,97610.84
2023-01-18T01:44:04.781Z,97635.91
2023-01-18T01:49:15.977Z,97654.47
2023-01-18T01:54:38.057Z,97681.28
2023-01-18T01:59:45.746Z,97666.34
2023-01-18T02:04:53.808Z,97674.34
2023-01-18T02:09:58.561Z,97671.88
2023-01-18T02:15:01.135Z,97644.13
2023-01-18T02:20:42.091Z,97663.97
2023-01-18T02:26:06.699Z,97693.53
2023-01-18T02:31:26.367Z,97725.81
2023-01-18T02:36:44.521Z,97718.94
2023-01-18T02:42:12.388Z,97718.94
2023-01-18T02:47:14.797Z,97716.66
2023-01-18T02:52:40.691Z,97708.00
2023-01-18T02:57:43.727Z,97698.72
2023-01-18T03:02:49.343Z,97707.37
2023-01-18T03:08:06.346Z,97716.16
2023-01-18T03:13:16.914Z,97687.12
2023-01-18T03:18:37.153Z,97687.44
2023-01-18T03:23:42.511Z,97700.97
2023-01-18T03:29:16.150Z,97690.97
2023-01-18T03:34:26.409Z,97685.28
2023-01-18T03:39:36.801Z,97705.06
2023-01-18T03:44:46.269Z,97685.94
2023-01-18T03:49:49.349Z,97665.81
2023-01-18T03:55:03.412Z,97669.00
2023-01-18T04:00:09.367Z,97675.84
2023-01-18T04:05:12.041Z,97664.31
2023-01-18T04:10:15.007Z,97678.81
2023-01-18T04:15:17.168Z,97711.19
2023-01-18T04:20:19.423Z,97688.22
2023-01-18T04:25:21.971Z,97694.28
2023-01-18T04:30:24.145Z,97699.50
2023-01-18T04:35:26.217Z,97661.78
2023-01-18T04:40:28.278Z,97683.41
2023-01-18T04:45:30.942Z,97685.63
2023-01-18T04:50:33.171Z,97723.50
2023-01-18T04:55:35.342Z,97721.75
2023-01-18T05:00:40.554Z,97721.28
2023-01-18T05:05:42.720Z,97730.44
2023-01-18T05:10:44.802Z,97709.41
2023-01-18T05:15:47.805Z,97758.47
2023-01-18T05:20:49.977Z,97781.28
2023-01-18T05:25:53.848Z,97817.56
2023-01-18T05:30:55.996Z,97797.28
2023-01-18T05:35:58.388Z,97781.53
2023-01-18T05:41:00.519Z,97803.94
2023-01-18T05:46:02.693Z,97805.25
2023-01-18T05:51:10.422Z,97798.09
2023-01-18T05:56:12.492Z,97795.28
2023-01-18T06:01:14.644Z,97791.25
2023-01-18T06:06:16.956Z,97767.97
2023-01-18T06:11:19.038Z,97748.28
2023-01-18T06:16:21.172Z,97785.81
2023-01-18T06:21:23.399Z,97782.69
2023-01-18T06:26:25.556Z,97800.72
2023-01-18T06:31:27.753Z,97811.31
2023-01-18T06:36:29.994Z,97826.75
2023-01-18T06:41:32.241Z,97817.59
2023-01-18T06:46:34.458Z,97808.91
2023-01-18T06:51:36.987Z,97720.31
2023-01-18T06:56:39.789Z,97761.53
2023-01-18T07:01:42.058Z,97770.88
2023-01-18T07:06:44.255Z,97844.37
2023-01-18T07:11:46.920Z,97855.97
2023-01-18T07:16:49.029Z,97862.06
2023-01-18T07:21:53.753Z,97845.13
2023-01-18T07:26:56.026Z,97863.66
2023-01-18T07:32:04.278Z,97884.31
2023-01-18T07:37:06.607Z,97937.78
2023-01-18T07:42:09.127Z,97929.84
2023-01-18T07:47:11.203Z,97942.44
2023-01-18T07:52:13.369Z,97946.47
2023-01-18T07:57:15.649Z,97977.56
2023-01-18T08:02:17.848Z,98003.78
2023-01-18T08:07:20.028Z,97992.84
2023-01-18T08:12:22.862Z,98008.06
2023-01-18T08:17:24.995Z,98016.25
2023-01-18T08:22:27.204Z,98024.72
2023-01-18T08:27:29.378Z,98040.88
2023-01-18T08:32:31.508Z,98060.66
2023-01-18T08:37:33.770Z,98075.97
2023-01-18T08:42:35.894Z,98073.97
2023-01-18T08:47:38.043Z,98060.69
2023-01-18T08:52:40.246Z,98062.91
2023-01-18T08:57:42.848Z,98089.44
2023-01-18T09:02:44.928Z,98104.72
2023-01-18T09:07:47.518Z,98137.84
2023-01-18T09:12:52.150Z,98145.22
2023-01-18T09:17:55.102Z,98142.47
2023-01-18T09:22:57.573Z,98150.50
2023-01-18T09:28:02.297Z,98174.50
2023-01-18T09:33:04.802Z,98197.69
2023-01-18T09:38:09.908Z,98241.19
2023-01-18T09:43:21.427Z,98266.69
2023-01-18T09:48:31.232Z,98249.78
2023-01-18T09:53:55.382Z,98274.62
2023-01-18T09:59:45.794Z,98270.59
2023-01-18T10:04:54.021Z,98297.25
2023-01-18T10:10:00.696Z,98288.63
2023-01-18T10:15:05.440Z,98311.09
2023-01-18T10:20:36.786Z,98307.06
2023-01-18T10:25:52.336Z,98320.50
2023-01-18T10:31:22.346Z,98349.78
2023-01-18T10:36:38.414Z,98375.47
2023-01-18T10:41:42.314Z,98367.44
2023-01-18T10:46:45.539Z,98345.63
2023-01-18T10:51:49.622Z,98368.66
2023-01-18T10:57:04.730Z,98373.09
2023-01-18T11:02:23.539Z,98409.63
2023-01-18T11:07:30.040Z,98405.56
2023-01-18T11:12:43.417Z,98436.19
2023-01-18T11:17:58.102Z,98416.75
2023-01-18T11:23:10.079Z,98430.03
2023-01-18T11:28:19.222Z,98444.41
2023-01-18T11:33:25.720Z,98456.75
2023-01-18T11:38:33.567Z,98468.06
2023-01-18T11:43:37.957Z,98466.63
2023-01-18T11:48:48.614Z,98452.63
2023-01-18T11:54:58.481Z,98464.16
2023-01-18T12:00:00.637Z,98480.78
2023-01-18T12:05:25.797Z,98514.75
2023-01-18T12:10:38.188Z,98514.41
2023-01-18T12:16:11.272Z,98537.50
2023-01-18T12:21:23.319Z,98547.09
2023-01-18T12:26:28.753Z,98541.66
2023-01-18T12:31:48.890Z,98561.09
2023-01-18T12:37:18.681Z,98572.81
2023-01-18T12:42:33.299Z,98564.78
2023-01-18T12:47:40.627Z,98596.28
2023-01-18T12:52:51.179Z,98588.72
2023-01-18T12:57:59.479Z,98577.13
2023-01-18T13:03:13.472Z,98613.69
2023-01-18T13:08:20.891Z,98619.56
2023-01-18T13:13:29.244Z,98622.31
2023-01-18T13:18:43.029Z,98632.84
2023-01-18T13:24:09.196Z,98638.22
2023-01-18T13:29:17.409Z,98668.09
2023-01-18T13:34:31.446Z,98684.66
2023-01-18T13:39:45.686Z,98687.38
2023-01-18T13:44:50.164Z,98692.78
2023-01-18T13:49:52.354Z,98695.81
2023-01-18T13:54:59.032Z,98680.91
2023-01-18T14:00:02.556Z,98685.19
2023-01-18T14:05:16.176Z,98676.13
2023-01-18T14:10:38.927Z,98700.69
2023-01-18T14:15:43.896Z,98705.44
2023-01-18T14:20:53.741Z,98732.25
2023-01-18T14:26:01.792Z,98728.19
2023-01-18T14:31:07.205Z,98738.63
2023-01-18T14:36:21.969Z,98745.91
2023-01-18T14:41:24.151Z,98755.91
2023-01-18T14:46:27.304Z,98746.62
2023-01-18T14:51:29.968Z,98772.13
2023-01-18T14:56:39.830Z,98766.00
2023-01-18T15:01:43.827Z,98775.66
2023-01-18T15:06:50.051Z,98763.09
2023-01-18T15:11:55.255Z,98765.19
2023-01-18T15:17:00.194Z,98768.06
2023-01-18T15:22:08.426Z,98767.25
2023-01-18T15:27:18.964Z,98748.69
2023-01-18T15:32:26.936Z,98736.34
2023-01-18T15:37:33.248Z,98751.84
2023-01-18T15:42:45.635Z,98763.72
2023-01-18T15:47:52.089Z,98771.00
2023-01-18T15:53:06.392Z,98805.94
2023-01-18T15:58:20.622Z,98828.03
2023-01-18T16:03:35.065Z,98821.09
2023-01-18T16:09:10.530Z,98826.87
2023-01-18T16:14:28.047Z,98835.19
2023-01-18T16:19:41.367Z,98841.00
2023-01-18T16:25:07.958Z,98837.44
2023-01-18T16:30:39.571Z,98857.81
2023-01-18T16:35:42.134Z,98867.22
2023-01-18T16:40:46.402Z,98853.94
2023-01-18T16:45:51.006Z,98855.94
2023-01-18T16:50:55.778Z,98847.44
2023-01-18T16:55:57.952Z,98839.91
2023-01-18T17:01:05.871Z,98853.34
2023-01-18T17:06:15.449Z,98863.59
2023-01-18T17:11:18.249Z,98866.41
2023-01-18T17:16:20.755Z,98875.56
2023-01-18T17:26:25.714Z,98860.00
2023-01-18T17:31:28.440Z,98884.44
2023-01-18T17:36:30.671Z,98892.28
2023-01-18T17:41:33.836Z,98934.06
2023-01-18T17:46:36.654Z,98913.13
2023-01-18T17:51:39.195Z,98943.06
2023-01-18T17:56:41.370Z,98961.91
2023-01-18T18:01:43.510Z,98957.59
2023-01-18T18:06:53.753Z,98965.84
2023-01-18T18:11:57.720Z,98970.22
2023-01-18T18:17:01.228Z,98982.81
2023-01-18T18:22:03.378Z,98965.53
2023-01-18T18:27:05.841Z,98959.47
2023-01-18T18:32:08.488Z,98948.03
2023-01-18T18:37:11.231Z,98973.75
2023-01-18T18:42:14.216Z,98970.50
2023-01-18T18:47:16.440Z,98959.28
2023-01-18T18:52:18.626Z,98959.09
2023-01-18T18:57:22.217Z,98954.78
2023-01-18T19:02:24.377Z,98949.63
2023-01-18T19:07:26.920Z,98962.75
2023-01-18T19:12:29.622Z,98947.50
2023-01-18T19:17:32.408Z,98956.78
2023-01-18T19:22:37.903Z,98943.47
2023-01-18T19:27:40.136Z,98965.28
2023-01-18T19:32:42.216Z,98940.75
2023-01-18T19:37:45.467Z,98962.78
2023-01-18T19:42:54.578Z,98968.28
2023-01-18T19:47:59.652Z,98962.00
2023-01-18T19:53:02.170Z,98969.12
2023-01-18T19:58:06.674Z,98963.19
2023-01-18T20:03:13.681Z,98950.66
2023-01-18T20:08:15.890Z,98941.37
2023-01-18T20:13:18.626Z,98953.59
2023-01-18T20:18:20.751Z,98967.19
2023-01-18T20:23:22.869Z,98965.84
2023-01-18T20:28:25.014Z,98969.78
2023-01-18T20:33:27.128Z,98958.91
2023-01-18T20:38:29.360Z,98981.50
2023-01-18T20:43:31.997Z,98967.09
2023-01-18T20:48:35.319Z,98975.75
2023-01-18T20:53:40.186Z,98978.47
2023-01-18T20:58:42.272Z,98976.38
2023-01-18T21:03:46.457Z,98958.41
2023-01-18T21:08:52.511Z,98977.13
2023-01-18T21:13:57.056Z,98980.94
2023-01-18T21:18:59.364Z,98963.75
2023-01-18T21:24:01.653Z,98956.09
2023-01-18T21:29:05.010Z,98954.22
2023-01-18T21:34:07.131Z,98933.53
2023-01-18T21:39:18.295Z,98915.22
2023-01-18T21:44:39.317Z,98896.72
2023-01-18T21:50:17.859Z,98915.81
2023-01-18T21:55:20.648Z,98931.63
2023-01-18T22:00:22.981Z,98915.84
2023-01-18T22:05:25.069Z,98945.03
2023-01-18T22:10:27.207Z,98963.28
2023-01-18T22:15:29.644Z,98963.03
2023-01-18T22:20:31.873Z,98963.84
2023-01-18T22:25:34.008Z,98981.34
2023-01-18T22:30:36.102Z,98971.06
2023-01-18T22:35:38.234Z,98977.59
2023-01-18T22:40:40.754Z,98969.12
2023-01-18T22:45:42.816Z,98985.44
2023-01-18T22:50:52.271Z,98957.59
2023-01-18T22:55:55.401Z,98957.53
2023-01-18T23:00:58.138Z,98933.34
2023-01-18T23:06:00.659Z,98954.03
2023-01-18T23:11:02.854Z,98942.31
2023-01-18T23:16:25.601Z,98935.75
2023-01-18T23:21:27.701Z,98930.53
2023-01-18T23:26:29.799Z,98915.88
2023-01-18T23:31:32.098Z,98916.41
2023-01-18T23:36:34.319Z,98893.53
2023-01-18T23:41:55.159Z,98887.53
2023-01-18T23:47:15.780Z,98884.75
2023-01-18T23:52:36.665Z,98882.84
2023-01-18T23:57:38.790Z,98879.28
